createdAt,value
2023-02-09T00:00:31.510Z,101650.41
2023-02-09T00:02:59.620Z,101649.41
2023-02-09T00:05:27.766Z,101645.75
2023-02-09T00:07:55.891Z,101650.56
2023-02-09T00:10:25.378Z,101655.53
2023-02-09T00:13:11.371Z,101662.13
2023-02-09T00:15:40.282Z,101656.88
2023-02-09T00:18:08.562Z,101652.50
2023-02-09T00:20:36.640Z,101643.88
2023-02-09T00:23:04.745Z,101649.72
2023-02-09T00:25:34.318Z,101639.53
2023-02-09T00:28:02.564Z,101642.78
2023-02-09T00:30:31.465Z,101639.16
2023-02-09T00:32:59.735Z,101631.34
2023-02-09T00:35:28.290Z,101632.84
2023-02-09T00:37:56.594Z,101630.16
2023-02-09T00:40:24.695Z,101631.78
2023-02-09T00:42:54.289Z,101627.56
2023-02-09T00:45:22.522Z,101629.25
2023-02-09T00:47:50.918Z,101633.47
2023-02-09T00:50:19.292Z,101629.25
2023-02-09T00:52:47.384Z,101634.38
2023-02-09T00:55:16.850Z,101632.75
2023-02-09T00:57:45.155Z,101626.84
2023-02-09T01:00:16.885Z,101620.91
2023-02-09T01:02:46.179Z,101623.34
2023-02-09T01:05:14.812Z,101619.88
2023-02-09T01:07:45.168Z,101618.97
2023-02-09T01:10:13.630Z,101617.31
2023-02-09T01:12:42.994Z,101619.72
2023-02-09T01:15:11.814Z,101624.66
2023-02-09T01:17:50.430Z,101624.66
2023-02-09T01:20:19.349Z,101629.66
2023-02-09T01:22:48.067Z,101626.22
2023-02-09T01:25:16.400Z,101617.63
2023-02-09T01:27:44.534Z,101612.50
2023-02-09T01:30:14.470Z,101620.13
2023-02-09T01:32:42.671Z,101614.13
2023-02-09T01:35:13.093Z,101613.16
2023-02-09T01:37:41.222Z,101603.09
2023-02-09T01:40:11.157Z,101602.44
2023-02-09T01:42:39.409Z,101597.69
2023-02-09T01:45:22.153Z,101595.47
2023-02-09T01:47:54.013Z,101596.50
2023-02-09T01:50:23.586Z,101587.41
2023-02-09T01:52:51.889Z,101586.72
2023-02-09T01:55:24.165Z,101579.25
2023-02-09T01:57:54.407Z,101568.38
2023-02-09T02:00:23.065Z,101573.50
2023-02-09T02:02:55.537Z,101572.78
2023-02-09T02:05:26.424Z,101569.47
2023-02-09T02:07:59.195Z,101566.13
2023-02-09T02:10:27.396Z,101572.06
2023-02-09T02:12:55.786Z,101567.91
2023-02-09T02:15:26.283Z,101569.63
2023-02-09T02:18:12.342Z,101552.66
2023-02-09T02:21:12.543Z,101550.16
2023-02-09T02:23:48.384Z,101541.75
2023-02-09T02:26:52.752Z,101546.72
2023-02-09T02:29:52.030Z,101547.72
2023-02-09T02:32:38.240Z,101546.88
2023-02-09T02:35:10.429Z,101543.50
2023-02-09T02:37:49.710Z,101546.88
2023-02-09T02:40:26.773Z,101535.84
2023-02-09T02:42:58.280Z,101529.09
2023-02-09T02:45:45.033Z,101524.06
2023-02-09T02:48:26.483Z,101522.34
2023-02-09T02:51:06.676Z,101521.47
2023-02-09T02:53:36.605Z,101524.91
2023-02-09T02:56:08.434Z,101540.91
2023-02-09T02:58:37.853Z,101532.44
2023-02-09T03:01:06.179Z,101525.75
2023-02-09T03:03:35.921Z,101521.53
2023-02-09T03:06:05.749Z,101529.19
2023-02-09T03:08:50.863Z,101529.13
2023-02-09T03:11:20.070Z,101524.91
2023-02-09T03:14:32.698Z,101530.66
2023-02-09T03:17:10.216Z,101522.19
2023-02-09T03:19:44.715Z,101522.09
2023-02-09T03:22:16.616Z,101524.63
2023-02-09T03:24:49.975Z,101532.22
2023-02-09T03:27:20.285Z,101523.72
2023-02-09T03:29:50.255Z,101527.94
2023-02-09T03:32:18.498Z,101519.50
2023-02-09T03:34:47.962Z,101519.50
2023-02-09T03:37:16.480Z,101522.03
2023-02-09T03:39:44.644Z,101516.13
2023-02-09T03:42:12.848Z,101516.06
2023-02-09T03:44:40.933Z,101523.66
2023-02-09T03:47:09.929Z,101527.84
2023-02-09T03:49:40.115Z,101519.38
2023-02-09T03:52:36.366Z,101514.19
2023-02-09T03:55:09.873Z,101512.44
2023-02-09T03:57:39.160Z,101509.84
2023-02-09T04:00:09.711Z,101506.41
2023-02-09T04:02:43.509Z,101513.13
2023-02-09T04:05:11.740Z,101513.06
2023-02-09T04:07:41.428Z,101524.88
2023-02-09T04:10:10.216Z,101524.00
2023-02-09T04:12:38.382Z,101525.66
2023-02-09T04:15:07.427Z,101528.16
2023-02-09T04:17:35.539Z,101522.22
2023-02-09T04:20:03.818Z,101522.22
2023-02-09T04:22:31.963Z,101522.13
2023-02-09T04:25:01.546Z,101527.91
2023-02-09T04:27:30.406Z,101542.19
2023-02-09T04:29:58.635Z,101538.00
2023-02-09T04:32:26.940Z,101538.84
2023-02-09T04:34:55.073Z,101536.28
2023-02-09T04:37:23.184Z,101545.59
2023-02-09T04:39:51.310Z,101543.88
2023-02-09T04:42:20.741Z,101554.81
2023-02-09T04:44:48.969Z,101555.66
2023-02-09T04:47:17.089Z,101555.66
2023-02-09T04:49:45.336Z,101557.28
2023-02-09T04:52:13.529Z,101552.75
2023-02-09T04:54:41.620Z,101554.38
2023-02-09T04:57:27.623Z,101561.91
2023-02-09T04:59:57.085Z,101561.84
2023-02-09T05:02:25.301Z,101563.50
2023-02-09T05:04:53.489Z,101567.66
2023-02-09T05:07:23.167Z,101563.47
2023-02-09T05:09:51.390Z,101566.78
2023-02-09T05:12:19.589Z,101570.16
2023-02-09T05:14:48.829Z,101565.72
2023-02-09T05:17:20.989Z,101576.47
2023-02-09T05:19:49.172Z,101570.50
2023-02-09T05:22:17.699Z,101581.41
2023-02-09T05:24:45.819Z,101578.75
2023-02-09T05:27:14.011Z,101574.31
2023-02-09T05:29:42.172Z,101580.09
2023-02-09T05:32:10.376Z,101579.19
2023-02-09T05:34:39.873Z,101585.88
2023-02-09T05:37:07.976Z,101581.59
2023-02-09T05:39:36.114Z,101586.56
2023-02-09T05:42:16.474Z,101579.75
2023-02-09T05:44:45.250Z,101584.75
2023-02-09T05:47:13.957Z,101586.28
2023-02-09T05:49:43.503Z,101590.38
2023-02-09T05:52:12.171Z,101581.69
2023-02-09T05:54:40.636Z,101595.94
2023-02-09T05:57:08.812Z,101596.63
2023-02-09T05:59:36.929Z,101596.50
2023-02-09T06:02:05.192Z,101598.00
2023-02-09T06:04:33.579Z,101586.16
2023-02-09T06:07:04.292Z,101586.16
2023-02-09T06:09:32.473Z,101579.41
2023-02-09T06:12:00.617Z,101583.59
2023-02-09T06:14:29.021Z,101579.41
2023-02-09T06:16:57.176Z,101586.16
2023-02-09T06:19:25.689Z,101581.13
2023-02-09T06:21:53.997Z,101584.50
2023-02-09T06:24:24.014Z,101577.69
2023-02-09T06:26:52.440Z,101573.38
2023-02-09T06:29:20.917Z,101569.09
2023-02-09T06:31:49.478Z,101574.16
2023-02-09T06:34:18.070Z,101579.22
2023-02-09T06:36:46.663Z,101579.00
2023-02-09T06:39:15.158Z,101583.34
2023-02-09T06:41:44.965Z,101588.25
2023-02-09T06:44:13.503Z,101592.47
2023-02-09T06:46:42.040Z,101589.03
2023-02-09T06:49:10.571Z,101596.59
2023-02-09T06:51:39.194Z,101605.84
2023-02-09T06:54:07.845Z,101597.31
2023-02-09T06:56:36.382Z,101601.59
2023-02-09T06:59:06.104Z,101598.16
2023-02-09T07:01:34.529Z,101589.66
2023-02-09T07:04:03.565Z,101595.56
2023-02-09T07:06:32.240Z,101598.16
2023-02-09T07:09:00.594Z,101602.47
2023-02-09T07:11:30.552Z,101608.44
2023-02-09T07:13:59.055Z,101609.25
2023-02-09T07:16:29.120Z,101613.28
2023-02-09T07:18:59.430Z,101614.88
2023-02-09T07:21:28.581Z,101612.41
2023-02-09T07:23:56.928Z,101615.09
2023-02-09T07:26:25.511Z,101614.47
2023-02-09T07:28:53.840Z,101613.00
2023-02-09T07:31:22.295Z,101615.59
2023-02-09T07:33:52.199Z,101620.75
2023-02-09T07:36:20.579Z,101617.50
2023-02-09T07:38:48.869Z,101619.97
2023-02-09T07:41:19.256Z,101632.81
2023-02-09T07:43:47.489Z,101626.94
2023-02-09T07:46:17.476Z,101628.53
2023-02-09T07:48:45.869Z,101634.50
2023-02-09T07:51:16.143Z,101634.78
2023-02-09T07:53:44.489Z,101637.03
2023-02-09T07:56:12.830Z,101625.88
2023-02-09T07:58:41.017Z,101627.41
2023-02-09T08:01:11.188Z,101627.56
2023-02-09T08:03:39.764Z,101617.50
2023-02-09T08:06:13.234Z,101618.09
2023-02-09T08:08:43.075Z,101624.31
2023-02-09T08:11:11.219Z,101607.44
2023-02-09T08:13:40.870Z,101606.44
2023-02-09T08:16:10.693Z,101605.25
2023-02-09T08:18:40.853Z,101600.44
2023-02-09T08:21:11.108Z,101599.97
2023-02-09T08:23:40.499Z,101605.41
2023-02-09T08:26:12.282Z,101615.03
2023-02-09T08:28:44.930Z,101603.28
2023-02-09T08:31:13.745Z,101601.66
2023-02-09T08:33:42.178Z,101595.56
2023-02-09T08:36:11.378Z,101585.13
2023-02-09T08:38:39.679Z,101583.19
2023-02-09T08:41:10.292Z,101583.81
2023-02-09T08:43:38.427Z,101588.59
2023-02-09T08:46:07.636Z,101588.28
2023-02-09T08:48:37.069Z,101591.25
2023-02-09T08:51:05.930Z,101582.31
2023-02-09T08:53:34.248Z,101589.06
2023-02-09T08:56:02.524Z,101597.47
2023-02-09T08:58:33.251Z,101600.81
2023-02-09T09:01:01.562Z,101586.13
2023-02-09T09:03:31.719Z,101589.41
2023-02-09T09:06:00.591Z,101597.84
2023-02-09T09:08:28.826Z,101594.50
2023-02-09T09:10:57.020Z,101597.28
2023-02-09T09:13:25.253Z,101603.75
2023-02-09T09:15:55.129Z,101610.28
2023-02-09T09:18:24.140Z,101616.72
2023-02-09T09:20:52.504Z,101614.41
2023-02-09T09:23:21.525Z,101619.59
2023-02-09T09:25:49.843Z,101619.59
2023-02-09T09:28:18.057Z,101619.66
2023-02-09T09:30:46.484Z,101618.03
2023-02-09T09:33:16.161Z,101616.47
2023-02-09T09:35:44.849Z,101622.56
2023-02-09T09:38:13.114Z,101620.03
2023-02-09T09:40:42.085Z,101631.22
2023-02-09T09:43:16.324Z,101631.22
2023-02-09T09:45:46.009Z,101631.22
2023-02-09T09:48:23.875Z,101628.78
2023-02-09T09:50:52.790Z,101633.03
2023-02-09T09:53:28.721Z,101633.03
2023-02-09T09:55:59.275Z,101640.69
2023-02-09T09:58:27.508Z,101644.06
2023-02-09T10:00:56.040Z,101634.66
2023-02-09T10:03:25.827Z,101635.56
2023-02-09T10:05:55.393Z,101626.22
2023-02-09T10:08:28.466Z,101632.22
2023-02-09T10:10:58.792Z,101640.69
2023-02-09T10:13:28.708Z,101625.16
2023-02-09T10:15:57.953Z,101616.41
2023-02-09T10:18:30.272Z,101612.94
2023-02-09T10:21:03.736Z,101617.25
2023-02-09T10:23:39.623Z,101614.63
2023-02-09T10:26:21.632Z,101620.50
2023-02-09T10:28:51.732Z,101615.59
2023-02-09T10:31:25.196Z,101614.75
2023-02-09T10:33:58.861Z,101612.19
2023-02-09T10:36:30.337Z,101614.84
2023-02-09T10:39:16.882Z,101618.28
2023-02-09T10:41:47.047Z,101616.59
2023-02-09T10:44:20.275Z,101616.56
2023-02-09T10:46:48.723Z,101602.94
2023-02-09T10:49:33.886Z,101611.63
2023-02-09T10:52:16.281Z,101608.28
2023-02-09T10:54:44.708Z,101602.38
2023-02-09T10:57:28.246Z,101599.88
2023-02-09T10:59:57.927Z,101600.72
2023-02-09T11:02:38.986Z,101600.63
2023-02-09T11:05:33.060Z,101593.59
2023-02-09T11:08:13.636Z,101593.59
2023-02-09T11:10:45.846Z,101596.19
2023-02-09T11:13:23.581Z,101588.50
2023-02-09T11:16:27.230Z,101577.22
2023-02-09T11:19:00.643Z,101572.97
2023-02-09T11:21:41.602Z,101579.06
2023-02-09T11:24:16.306Z,101583.41
2023-02-09T11:26:49.427Z,101580.91
2023-02-09T11:29:25.104Z,101579.19
2023-02-09T11:32:09.408Z,101585.19
2023-02-09T11:34:55.312Z,101576.66
2023-02-09T11:37:35.896Z,101572.44
2023-02-09T11:40:26.454Z,101572.41
2023-02-09T11:43:14.644Z,101565.56
2023-02-09T11:45:45.246Z,101563.91
2023-02-09T11:48:15.072Z,101566.47
2023-02-09T11:50:53.187Z,101569.81
2023-02-09T11:53:31.422Z,101560.31
2023-02-09T11:56:00.767Z,101553.28
2023-02-09T11:58:37.909Z,101552.41
2023-02-09T12:01:15.842Z,101554.91
2023-02-09T12:03:49.883Z,101557.53
2023-02-09T12:06:22.924Z,101561.81
2023-02-09T12:09:00.680Z,101564.50
2023-02-09T12:11:40.412Z,101555.84
2023-02-09T12:14:39.715Z,101559.84
2023-02-09T12:17:13.091Z,101564.91
2023-02-09T12:19:44.042Z,101564.09
2023-02-09T12:22:55.444Z,101558.78
2023-02-09T12:25:49.702Z,101570.88
2023-02-09T12:28:45.608Z,101568.22
2023-02-09T12:31:19.997Z,101568.28
2023-02-09T12:34:25.011Z,101564.09
2023-02-09T12:37:28.294Z,101558.22
2023-02-09T12:40:22.588Z,101553.81
2023-02-09T12:43:27.577Z,101560.47
2023-02-09T12:46:23.041Z,101556.16
2023-02-09T12:49:20.885Z,101557.19
2023-02-09T12:52:07.119Z,101557.22
2023-02-09T12:54:42.761Z,101555.47
2023-02-09T12:57:56.434Z,101550.13
2023-02-09T13:00:55.192Z,101552.47
2023-02-09T13:03:24.697Z,101535.16
2023-02-09T13:05:52.952Z,101533.00
2023-02-09T13:08:29.054Z,101527.81
2023-02-09T13:11:00.694Z,101540.75
2023-02-09T13:13:36.384Z,101539.84
2023-02-09T13:16:39.822Z,101527.81
2023-02-09T13:19:18.308Z,101532.00
2023-02-09T13:21:57.449Z,101537.78
2023-02-09T13:24:35.188Z,101527.97
2023-02-09T13:27:03.561Z,101524.34
2023-02-09T13:29:32.466Z,101535.63
2023-02-09T13:32:08.722Z,101527.88
2023-02-09T13:34:39.971Z,101529.34
2023-02-09T13:37:19.193Z,101534.41
2023-02-09T13:39:47.396Z,101536.00
2023-02-09T13:42:20.604Z,101541.03
2023-02-09T13:44:51.426Z,101532.16
2023-02-09T13:47:21.325Z,101523.63
2023-02-09T13:49:58.195Z,101540.00
2023-02-09T13:52:26.855Z,101543.50
2023-02-09T13:54:55.276Z,101545.19
2023-02-09T13:57:34.699Z,101541.84
2023-02-09T14:00:10.477Z,101553.28
2023-02-09T14:02:50.184Z,101552.59
2023-02-09T14:05:26.590Z,101549.91
2023-02-09T14:07:54.813Z,101560.25
2023-02-09T14:10:23.282Z,101555.88
2023-02-09T14:12:55.673Z,101558.47
2023-02-09T14:15:45.761Z,101544.78
2023-02-09T14:18:47.553Z,101544.19
2023-02-09T14:21:19.754Z,101551.91
2023-02-09T14:23:49.174Z,101537.38
2023-02-09T14:26:23.957Z,101551.09
2023-02-09T14:28:54.875Z,101545.81
2023-02-09T14:31:24.098Z,101542.38
2023-02-09T14:33:54.821Z,101549.16
2023-02-09T14:36:26.296Z,101545.44
2023-02-09T14:38:55.211Z,101542.66
2023-02-09T14:41:29.488Z,101546.84
2023-02-09T14:44:01.076Z,101542.59
2023-02-09T14:46:29.658Z,101542.38
2023-02-09T14:48:59.677Z,101535.78
2023-02-09T14:51:28.639Z,101543.00
2023-02-09T14:53:57.058Z,101528.88
2023-02-09T14:56:28.694Z,101540.19
2023-02-09T14:58:57.318Z,101538.91
2023-02-09T15:01:25.799Z,101540.28
2023-02-09T15:03:54.551Z,101536.22
2023-02-09T15:06:26.848Z,101531.19
2023-02-09T15:08:55.467Z,101529.56
2023-02-09T15:11:43.046Z,101524.97
2023-02-09T15:14:12.056Z,101502.56
2023-02-09T15:16:40.640Z,101507.91
2023-02-09T15:19:12.893Z,101501.50
2023-02-09T15:21:42.715Z,101496.25
2023-02-09T15:24:11.097Z,101501.63
2023-02-09T15:26:39.629Z,101505.47
2023-02-09T15:29:12.579Z,101502.75
2023-02-09T15:31:41.169Z,101515.47
2023-02-09T15:34:11.478Z,101513.47
2023-02-09T15:36:39.953Z,101516.94
2023-02-09T15:39:13.892Z,101512.25
2023-02-09T15:41:59.798Z,101523.13
2023-02-09T15:44:50.960Z,101528.03
2023-02-09T15:47:45.071Z,101526.09
2023-02-09T15:50:13.597Z,101531.88
2023-02-09T15:52:42.025Z,101536.25
2023-02-09T15:55:14.895Z,101537.16
2023-02-09T15:57:43.315Z,101535.84
2023-02-09T16:00:18.909Z,101540.81
2023-02-09T16:02:49.600Z,101544.41
2023-02-09T16:05:18.317Z,101548.69
2023-02-09T16:07:46.840Z,101551.09
2023-02-09T16:10:22.203Z,101557.03
2023-02-09T16:12:50.759Z,101554.88
2023-02-09T16:15:19.842Z,101568.06
2023-02-09T16:17:48.382Z,101567.50
2023-02-09T16:20:17.432Z,101576.34
2023-02-09T16:22:57.672Z,101574.94
2023-02-09T16:25:27.574Z,101581.91
2023-02-09T16:27:56.906Z,101581.16
2023-02-09T16:30:27.078Z,101588.81
2023-02-09T16:32:55.648Z,101594.78
2023-02-09T16:35:25.387Z,101594.72
2023-02-09T16:37:53.935Z,101599.69
2023-02-09T16:40:28.588Z,101608.03
2023-02-09T16:42:57.639Z,101616.38
2023-02-09T16:45:26.969Z,101619.59
2023-02-09T16:47:59.152Z,101637.38
2023-02-09T16:50:33.029Z,101635.41
2023-02-09T16:53:16.630Z,101639.41
2023-02-09T16:55:49.228Z,101644.28
2023-02-09T16:58:18.415Z,101647.56
2023-02-09T17:00:46.544Z,101651.66
2023-02-09T17:03:16.982Z,101655.75
2023-02-09T17:05:47.603Z,101652.13
2023-02-09T17:08:18.334Z,101662.88
2023-02-09T17:10:48.674Z,101648.16
2023-02-09T17:13:20.558Z,101649.63
2023-02-09T17:15:50.486Z,101655.34
2023-02-09T17:18:21.004Z,101665.44
2023-02-09T17:20:51.720Z,101672.16
2023-02-09T17:23:23.154Z,101655.78
2023-02-09T17:25:55.089Z,101645.34
2023-02-09T17:28:23.442Z,101644.34
2023-02-09T17:30:51.674Z,101645.91
2023-02-09T17:33:23.762Z,101649.13
2023-02-09T17:38:41.601Z,101673.28
2023-02-09T17:41:15.843Z,101678.16
2023-02-09T17:43:44.254Z,101672.09
2023-02-09T17:46:12.780Z,101674.50
2023-02-09T17:48:41.070Z,101661.72
2023-02-09T17:51:12.632Z,101661.69
2023-02-09T17:53:41.272Z,101675.16
2023-02-09T17:56:11.771Z,101682.00
2023-02-09T17:58:39.978Z,101684.53
2023-02-09T18:01:21.600Z,101678.44
2023-02-09T18:03:50.025Z,101693.59
2023-02-09T18:06:19.670Z,101696.13
2023-02-09T18:08:47.792Z,101700.38
2023-02-09T18:11:17.433Z,101705.47
2023-02-09T18:13:45.678Z,101714.78
2023-02-09T18:16:14.585Z,101712.25
2023-02-09T18:18:44.927Z,101717.34
2023-02-09T18:21:15.042Z,101711.38
2023-02-09T18:23:43.337Z,101705.38
2023-02-09T18:26:11.526Z,101704.31
2023-02-09T18:28:41.051Z,101714.44
2023-02-09T18:31:13.556Z,101728.78
2023-02-09T18:33:41.882Z,101728.63
2023-02-09T18:36:10.176Z,101729.25
2023-02-09T18:38:39.019Z,101740.97
2023-02-09T18:41:07.202Z,101735.91
2023-02-09T18:43:35.480Z,101746.06
2023-02-09T18:46:06.249Z,101724.66
2023-02-09T18:48:34.638Z,101733.06
2023-02-09T18:51:02.785Z,101741.50
2023-02-09T18:53:30.988Z,101738.97
2023-02-09T18:55:59.273Z,101731.22
2023-02-09T18:58:27.590Z,101733.50
2023-02-09T19:00:55.796Z,101733.44
2023-02-09T19:03:25.258Z,101740.09
2023-02-09T19:05:53.437Z,101750.25
2023-02-09T19:08:21.903Z,101752.66
2023-02-09T19:10:50.071Z,101754.34
2023-02-09T19:13:18.449Z,101764.41
2023-02-09T19:15:46.925Z,101760.13
2023-02-09T19:18:15.319Z,101763.50
2023-02-09T19:20:44.994Z,101765.97
2023-02-09T19:23:13.249Z,101772.63
2023-02-09T19:25:41.422Z,101772.63
2023-02-09T19:28:09.645Z,101781.03
2023-02-09T19:30:37.850Z,101773.34
2023-02-09T19:33:06.053Z,101778.50
2023-02-09T19:35:34.301Z,101776.91
2023-02-09T19:38:03.821Z,101777.69
2023-02-09T19:40:36.262Z,101777.53
2023-02-09T19:43:04.764Z,101778.31
2023-02-09T19:45:36.480Z,101775.78
2023-02-09T19:48:05.631Z,101778.38
2023-02-09T19:50:33.878Z,101776.69
2023-02-09T19:53:03.792Z,101785.97
2023-02-09T19:55:32.025Z,101784.31
2023-02-09T19:58:00.292Z,101784.31
2023-02-09T20:00:28.784Z,101780.06
2023-02-09T20:02:57.091Z,101783.41
2023-02-09T20:05:25.464Z,101781.75
2023-02-09T20:07:54.450Z,101786.97
2023-02-09T20:10:24.679Z,101778.50
2023-02-09T20:12:52.938Z,101786.94
2023-02-09T20:15:21.462Z,101783.53
2023-02-09T20:17:49.953Z,101783.50
2023-02-09T20:20:18.324Z,101789.44
2023-02-09T20:22:48.551Z,101789.44
2023-02-09T20:25:17.194Z,101780.91
2023-02-09T20:27:48.312Z,101780.91
2023-02-09T20:30:16.895Z,101772.47
2023-02-09T20:32:45.088Z,101790.38
2023-02-09T20:35:13.742Z,101795.47
2023-02-09T20:37:41.950Z,101796.25
2023-02-09T20:40:11.854Z,101808.94
2023-02-09T20:42:57.551Z,101808.94
2023-02-09T20:45:44.917Z,101812.34
2023-02-09T20:48:14.008Z,101815.75
2023-02-09T20:50:42.338Z,101816.63
2023-02-09T20:53:10.548Z,101814.03
2023-02-09T20:55:38.714Z,101819.94
2023-02-09T20:58:07.241Z,101822.47
2023-02-09T21:00:36.888Z,101827.63
2023-02-09T21:03:05.305Z,101824.34
2023-02-09T21:05:33.530Z,101826.78
2023-02-09T21:08:04.258Z,101830.22
2023-02-09T21:10:35.370Z,101827.63
2023-02-09T21:13:04.225Z,101827.44
2023-02-09T21:15:32.491Z,101833.25
2023-02-09T21:18:02.050Z,101834.81
2023-02-09T21:20:32.077Z,101832.09
2023-02-09T21:23:00.384Z,101832.78
2023-02-09T21:25:28.638Z,101837.75
2023-02-09T21:27:59.265Z,101830.00
2023-02-09T21:30:27.755Z,101834.16
2023-02-09T21:32:56.690Z,101828.25
2023-02-09T21:35:26.207Z,101831.63
2023-02-09T21:37:54.465Z,101829.88
2023-02-09T21:40:23.109Z,101834.81
2023-02-09T21:42:51.321Z,101832.94
2023-02-09T21:45:19.801Z,101833.66
2023-02-09T21:47:48.018Z,101831.81
2023-02-09T21:50:16.379Z,101828.31
2023-02-09T21:52:45.904Z,101837.56
2023-02-09T21:55:14.146Z,101832.41
2023-02-09T21:57:42.304Z,101829.81
2023-02-09T22:00:13.024Z,101833.13
2023-02-09T22:02:41.262Z,101832.06
2023-02-09T22:05:09.777Z,101826.78
2023-02-09T22:07:37.939Z,101828.25
2023-02-09T22:10:09.008Z,101831.53
2023-02-09T22:12:38.636Z,101828.91
2023-02-09T22:15:07.847Z,101829.69
2023-02-09T22:17:37.614Z,101833.00
2023-02-09T22:20:06.306Z,101837.19
2023-02-09T22:22:34.526Z,101843.06
2023-02-09T22:25:02.899Z,101841.38
2023-02-09T22:27:32.404Z,101842.22
2023-02-09T22:30:00.633Z,101846.56
2023-02-09T22:32:28.871Z,101845.81
2023-02-09T22:34:57.039Z,101844.06
2023-02-09T22:37:25.112Z,101840.72
2023-02-09T22:39:53.225Z,101851.06
2023-02-09T22:42:21.481Z,101853.75
2023-02-09T22:44:51.028Z,101845.38
2023-02-09T22:47:19.166Z,101844.59
2023-02-09T22:49:47.311Z,101851.44
2023-02-09T22:52:15.550Z,101845.59
2023-02-09T22:54:43.766Z,101843.13
2023-02-09T22:57:11.915Z,101855.78
2023-02-09T22:59:40.001Z,101849.13
2023-02-09T23:02:12.152Z,101859.38
2023-02-09T23:04:40.686Z,101861.19
2023-02-09T23:07:08.788Z,101866.44
2023-02-09T23:09:36.944Z,101871.63
2023-02-09T23:12:05.632Z,101876.78
2023-02-09T23:14:33.763Z,101871.81
2023-02-09T23:17:01.934Z,101873.56
2023-02-09T23:19:31.421Z,101872.56
2023-02-09T23:21:59.743Z,101873.44
2023-02-09T23:24:27.976Z,101868.38
2023-02-09T23:26:56.228Z,101870.00
2023-02-09T23:29:24.423Z,101864.81
2023-02-09T23:31:52.544Z,101869.88
2023-02-09T23:34:23.164Z,101863.09
2023-02-09T23:36:52.728Z,101863.03
2023-02-09T23:39:22.477Z,101863.91
2023-02-09T23:41:50.649Z,101863.91
2023-02-09T23:44:19.458Z,101864.72
2023-02-09T23:46:47.750Z,101868.09
2023-02-09T23:49:15.867Z,101863.88
2023-02-09T23:51:45.299Z,101873.25
2023-02-09T23:54:14.979Z,101872.41
2023-02-09T23:56:44.077Z,101869.03
2023-02-09T23:59:15.466Z,101874.94
